Time;durP1;ratioP1;P1;durP2;ratioP2;P2;SDS_P1;SDS_P2;PMS_P1;PMS_P2;Temp;Humidity;BMP_temperature;BMP_pressure;BME280_temperature;BME280_humidity;BME280_pressure;Samples;Min_cycle;Max_cycle;Signal;HPM_P1;HPM_P2
2021/05/17 00:02:20;;;;;;;3.78;1.05;;;20.90;56.10;;;;;;5055287;28;20017;-57
2021/05/17 00:04:46;;;;;;;2.15;1.00;;;20.80;56.00;;;;;;5055855;28;20459;-57
2021/05/17 00:07:12;;;;;;;2.88;1.02;;;20.80;56.00;;;;;;5041311;28;20021;-54
2021/05/17 00:09:38;;;;;;;1.85;0.80;;;20.80;56.00;;;;;;5035835;28;20055;-54
2021/05/17 00:12:08;;;;;;;1.83;0.77;;;20.80;56.00;;;;;;5036014;28;20064;-55
2021/05/17 00:14:33;;;;;;;1.70;0.82;;;20.80;56.00;;;;;;5035461;28;20022;-59
2021/05/17 00:16:59;;;;;;;1.92;0.90;;;20.80;56.20;;;;;;5036039;28;20087;-57
2021/05/17 00:19:25;;;;;;;2.20;0.80;;;20.80;56.00;;;;;;5036075;28;20061;-58
2021/05/17 00:21:51;;;;;;;2.45;1.00;;;20.80;56.00;;;;;;5018091;28;20029;-58
2021/05/17 00:24:18;;;;;;;0.98;0.60;;;20.80;56.00;;;;;;5036013;28;20086;-60
2021/05/17 00:26:44;;;;;;;1.38;0.82;;;20.80;56.00;;;;;;5035133;28;20060;-57
2021/05/17 00:29:10;;;;;;;1.27;0.70;;;20.80;56.00;;;;;;5035723;28;20025;-58
2021/05/17 00:31:40;;;;;;;1.52;0.68;;;20.80;56.00;;;;;;5035234;28;20064;-57
2021/05/17 00:34:08;;;;;;;0.70;0.57;;;20.80;56.00;;;;;;5035370;28;20368;-55
2021/05/17 00:36:34;;;;;;;1.40;0.98;;;20.80;55.90;;;;;;5035878;28;20377;-57
2021/05/17 00:39:01;;;;;;;1.15;0.60;;;20.80;55.90;;;;;;5035063;28;20033;-60
2021/05/17 00:41:27;;;;;;;1.27;0.60;;;20.70;55.90;;;;;;5035545;28;20032;-55
2021/05/17 00:43:55;;;;;;;1.10;0.90;;;20.80;55.90;;;;;;5035428;28;20018;-60
2021/05/17 00:46:23;;;;;;;2.50;1.00;;;20.70;55.80;;;;;;5035118;28;20371;-56
2021/05/17 00:48:50;;;;;;;0.80;0.70;;;20.70;55.80;;;;;;5035843;28;20333;-60
2021/05/17 00:51:17;;;;;;;0.65;0.57;;;20.70;55.80;;;;;;5034936;28;20029;-58
2021/05/17 00:53:43;;;;;;;0.80;0.63;;;20.70;55.80;;;;;;5034646;28;20052;-56
2021/05/17 00:56:10;;;;;;;0.63;0.47;;;20.70;55.80;;;;;;5017925;28;20029;-57
2021/05/17 00:58:36;;;;;;;1.40;0.80;;;20.70;55.80;;;;;;5034609;28;20028;-59
2021/05/17 01:01:02;;;;;;;0.60;0.60;;;20.70;55.80;;;;;;5035207;28;20337;-58
2021/05/17 01:03:28;;;;;;;0.73;0.50;;;20.70;55.80;;;;;;5034842;28;20026;-55
2021/05/17 01:05:55;;;;;;;1.35;0.70;;;20.70;55.80;;;;;;5034643;28;20122;-55
2021/05/17 01:08:25;;;;;;;0.70;0.70;;;20.70;55.80;;;;;;5035108;28;21018;-60
2021/05/17 01:10:56;;;;;;;1.98;0.85;;;20.70;55.80;;;;;;5034277;28;20478;-57
2021/05/17 01:13:22;;;;;;;1.65;0.70;;;20.70;55.70;;;;;;5034625;28;20088;-58
2021/05/17 01:15:48;;;;;;;1.08;0.63;;;20.70;55.70;;;;;;5033894;28;20348;-58
2021/05/17 01:18:17;;;;;;;0.88;0.82;;;20.70;55.70;;;;;;5034784;28;20022;-58
2021/05/17 01:20:45;;;;;;;0.73;0.60;;;20.70;55.70;;;;;;5035038;28;20029;-58
2021/05/17 01:25:49;;;;;;;1.75;0.70;;;20.70;55.70;;;;;;5034421;28;20348;-57
2021/05/17 01:28:22;;;;;;;0.98;0.63;;;20.70;55.70;;;;;;5034578;28;20104;-57
2021/05/17 01:30:50;;;;;;;0.90;0.60;;;20.60;55.70;;;;;;5034282;28;20399;-58
2021/05/17 01:33:16;;;;;;;0.82;0.73;;;20.70;55.70;;;;;;5034288;28;20460;-58
2021/05/17 01:35:43;;;;;;;1.45;0.60;;;20.60;55.60;;;;;;5034285;28;20033;-59
2021/05/17 01:38:12;;;;;;;1.83;0.80;;;20.60;55.60;;;;;;5034306;28;20032;-59
2021/05/17 01:40:42;;;;;;;0.50;0.50;;;20.70;55.70;;;;;;5034440;28;20021;-57
2021/05/17 01:43:10;;;;;;;1.08;0.70;;;20.60;55.70;;;;;;5033981;28;20033;-59
2021/05/17 01:45:37;;;;;;;0.77;0.60;;;20.60;55.60;;;;;;5034433;28;20026;-60
2021/05/17 01:48:02;;;;;;;1.60;0.68;;;20.60;55.60;;;;;;5033688;28;20104;-59
2021/05/17 01:50:30;;;;;;;0.73;0.63;;;20.60;55.60;;;;;;5033960;28;20433;-59
2021/05/17 01:52:57;;;;;;;0.50;0.47;;;20.60;55.60;;;;;;5034320;28;20096;-59
2021/05/17 01:55:24;;;;;;;1.77;1.30;;;20.60;55.60;;;;;;5033874;28;20079;-55
2021/05/17 01:58:20;;;;;;;1.38;0.70;;;20.60;55.60;;;;;;5033975;28;20068;-57
2021/05/17 02:00:46;;;;;;;0.90;0.60;;;20.60;55.60;;;;;;5033941;28;20029;-58
2021/05/17 02:03:12;;;;;;;0.75;0.60;;;20.60;55.60;;;;;;5033353;28;20025;-57
2021/05/17 02:05:39;;;;;;;0.85;0.70;;;20.60;55.60;;;;;;5034166;28;20029;-56
2021/05/17 02:08:09;;;;;;;0.70;0.70;;;20.60;55.60;;;;;;5033614;28;20021;-56
2021/05/17 02:10:35;;;;;;;1.10;0.70;;;20.60;55.60;;;;;;5033442;28;20117;-57
2021/05/17 02:13:03;;;;;;;1.60;0.60;;;20.60;55.60;;;;;;5033866;28;20420;-56
2021/05/17 02:15:29;;;;;;;0.50;0.50;;;20.60;55.50;;;;;;5033571;28;20087;-59
2021/05/17 02:18:08;;;;;;;0.73;0.60;;;20.60;55.50;;;;;;5033657;28;20030;-55
2021/05/17 02:20:36;;;;;;;1.73;0.60;;;20.60;55.50;;;;;;5033693;28;20029;-56
2021/05/17 02:23:07;;;;;;;1.05;0.65;;;20.50;55.50;;;;;;5033649;28;20079;-58
2021/05/17 02:25:34;;;;;;;1.60;0.73;;;20.50;55.50;;;;;;5033231;28;20025;-57
2021/05/17 02:28:00;;;;;;;0.73;0.65;;;20.60;55.50;;;;;;5033434;28;20140;-60
2021/05/17 02:30:26;;;;;;;0.60;0.50;;;20.60;55.50;;;;;;5033168;28;20413;-58
2021/05/17 02:32:54;;;;;;;0.47;0.47;;;20.60;55.50;;;;;;5033832;28;20390;-58
2021/05/17 02:35:21;;;;;;;1.05;0.75;;;20.50;55.40;;;;;;5033310;28;20444;-57
2021/05/17 02:37:47;;;;;;;1.55;0.70;;;20.60;55.50;;;;;;5033705;28;20065;-60
2021/05/17 02:40:14;;;;;;;1.08;0.75;;;20.50;55.40;;;;;;5015790;28;20029;-55
2021/05/17 02:42:43;;;;;;;0.55;0.50;;;20.50;55.40;;;;;;5033393;28;20440;-57
2021/05/17 02:45:09;;;;;;;0.45;0.45;;;20.50;55.40;;;;;;5033535;28;20029;-54
2021/05/17 02:47:36;;;;;;;0.65;0.60;;;20.50;55.70;;;;;;5033259;28;20713;-58
2021/05/17 02:50:03;;;;;;;0.60;0.60;;;20.50;55.40;;;;;;5033466;28;20146;-61
2021/05/17 02:52:31;;;;;;;1.25;0.60;;;20.50;56.10;;;;;;5015713;28;20068;-58
2021/05/17 02:55:03;;;;;;;0.68;0.45;;;20.50;55.40;;;;;;5033336;28;20160;-57
2021/05/17 02:57:39;;;;;;;2.00;0.65;;;20.50;55.40;;;;;;5033194;28;20030;-56
2021/05/17 03:00:10;;;;;;;0.90;0.50;;;20.50;55.40;;;;;;5033133;28;20025;-59
2021/05/17 03:02:58;;;;;;;0.77;0.77;;;20.50;55.40;;;;;;5033168;28;20021;-54
2021/05/17 03:05:31;;;;;;;0.98;0.85;;;20.50;55.40;;;;;;5015933;28;20037;-53
2021/05/17 03:08:00;;;;;;;0.40;0.40;;;20.50;55.40;;;;;;5033088;28;20348;-56
2021/05/17 03:10:28;;;;;;;0.60;0.60;;;20.50;55.40;;;;;;5033389;28;20026;-58
2021/05/17 03:12:56;;;;;;;0.45;0.32;;;20.50;55.40;;;;;;5032810;28;20060;-58
2021/05/17 03:15:25;;;;;;;1.73;0.60;;;20.50;55.30;;;;;;5032649;28;20451;-56
2021/05/17 03:17:52;;;;;;;2.05;0.60;;;20.50;55.40;;;;;;5033178;28;20040;-56
2021/05/17 03:20:19;;;;;;;0.50;0.47;;;20.50;55.40;;;;;;5032935;28;20025;-59
2021/05/17 03:22:46;;;;;;;2.25;0.60;;;20.50;55.40;;;;;;5033341;28;20523;-58
2021/05/17 03:25:12;;;;;;;0.75;0.55;;;20.40;55.30;;;;;;5032930;28;20313;-56
2021/05/17 03:27:39;;;;;;;0.65;0.52;;;20.40;55.30;;;;;;5033005;28;20356;-56
2021/05/17 03:30:06;;;;;;;1.15;0.70;;;20.50;55.30;;;;;;5033086;28;21700;-58
2021/05/17 03:32:31;;;;;;;0.65;0.50;;;20.40;55.20;;;;;;5032735;28;20395;-58
2021/05/17 03:34:57;;;;;;;0.93;0.65;;;20.40;55.30;;;;;;5033168;28;20029;-59
2021/05/17 03:37:22;;;;;;;0.52;0.52;;;20.40;55.30;;;;;;5032956;28;20025;-51
2021/05/17 03:39:50;;;;;;;0.98;0.50;;;20.40;55.30;;;;;;5036300;28;20025;-58
2021/05/17 03:42:16;;;;;;;0.45;0.40;;;20.40;55.30;;;;;;5037026;28;20064;-52
2021/05/17 03:44:41;;;;;;;2.65;0.63;;;20.40;55.30;;;;;;5036314;28;20065;-60
2021/05/17 03:47:07;;;;;;;0.93;0.47;;;20.40;55.30;;;;;;5036230;28;20028;-58
2021/05/17 03:49:33;;;;;;;0.88;0.52;;;20.40;55.20;;;;;;5036353;28;20064;-59
2021/05/17 03:51:59;;;;;;;0.63;0.60;;;20.40;55.30;;;;;;5036096;28;20071;-55
2021/05/17 03:54:24;;;;;;;0.68;0.63;;;20.40;55.20;;;;;;5036563;28;20444;-57
2021/05/17 03:56:50;;;;;;;2.00;0.60;;;20.40;55.30;;;;;;5036070;28;20025;-58
2021/05/17 03:59:17;;;;;;;0.85;0.60;;;20.40;55.90;;;;;;5035865;28;20026;-58
2021/05/17 04:01:44;;;;;;;1.48;0.80;;;20.40;55.20;;;;;;5035813;28;20444;-57
2021/05/17 04:04:10;;;;;;;0.73;0.47;;;20.40;55.20;;;;;;5035809;28;20474;-57
2021/05/17 04:14:39;;;;;;;;;;;20.40;55.20;;;;;;5036472;28;20029;-58
2021/05/17 04:17:05;;;;;;;0.57;0.40;;;20.40;55.30;;;;;;5035596;28;19916;-61
2021/05/17 04:19:30;;;;;;;1.30;0.60;;;20.40;55.30;;;;;;5035975;28;20025;-57
2021/05/17 04:21:56;;;;;;;0.75;0.55;;;20.30;55.20;;;;;;5035891;28;20103;-59
2021/05/17 04:24:22;;;;;;;1.00;0.65;;;20.30;55.20;;;;;;5035308;28;20122;-55
2021/05/17 04:26:47;;;;;;;1.42;0.80;;;20.30;55.20;;;;;;5018631;28;20036;-54
2021/05/17 04:29:13;;;;;;;0.82;0.75;;;20.40;55.30;;;;;;5035161;28;20030;-56
2021/05/17 04:31:39;;;;;;;0.57;0.40;;;20.40;55.30;;;;;;5017994;28;20045;-57
2021/05/17 04:34:05;;;;;;;0.82;0.60;;;20.30;55.30;;;;;;5035372;28;20026;-59
2021/05/17 04:36:31;;;;;;;1.52;0.55;;;20.30;55.20;;;;;;5035085;28;20026;-53
2021/05/17 04:38:59;;;;;;;0.95;0.55;;;20.40;55.30;;;;;;5035689;28;20021;-60
2021/05/17 04:41:25;;;;;;;2.35;0.98;;;20.40;55.30;;;;;;5035190;28;20044;-56
2021/05/17 04:43:50;;;;;;;1.67;0.80;;;20.30;55.20;;;;;;5035393;28;20440;-54
2021/05/17 04:46:17;;;;;;;1.27;0.75;;;20.30;55.20;;;;;;5037746;28;20025;-56
2021/05/17 04:48:49;;;;;;;0.82;0.68;;;20.30;55.20;;;;;;5042206;28;20013;-60
2021/05/17 04:51:16;;;;;;;0.98;0.63;;;20.30;55.30;;;;;;5034915;28;20125;-54
2021/05/17 04:53:42;;;;;;;1.10;0.70;;;20.30;55.30;;;;;;5034996;28;20022;-58
2021/05/17 04:56:07;;;;;;;0.93;0.70;;;20.30;55.30;;;;;;5035173;28;20604;-61
2021/05/17 04:58:33;;;;;;;1.60;0.70;;;20.30;55.30;;;;;;5035280;28;20400;-59
2021/05/17 05:00:58;;;;;;;2.17;0.55;;;20.30;55.40;;;;;;5034992;28;20033;-59
2021/05/17 05:03:24;;;;;;;4.60;1.27;;;20.30;55.50;;;;;;5035087;28;20087;-57
2021/05/17 05:05:49;;;;;;;1.52;1.08;;;20.30;55.50;;;;;;5034916;28;20026;-55
2021/05/17 05:08:15;;;;;;;1.40;0.77;;;20.30;55.50;;;;;;5035175;28;20101;-57
2021/05/17 05:10:40;;;;;;;1.08;0.90;;;20.30;55.60;;;;;;5034600;28;20170;-58
2021/05/17 05:13:06;;;;;;;5.05;1.00;;;20.30;55.60;;;;;;5034429;28;20394;-59
2021/05/17 05:15:32;;;;;;;1.88;0.70;;;20.40;55.60;;;;;;5034956;28;20432;-56
2021/05/17 05:17:57;;;;;;;4.43;0.82;;;20.40;55.70;;;;;;5034754;28;20029;-56
2021/05/17 05:20:23;;;;;;;2.88;0.68;;;20.40;55.70;;;;;;5034834;28;20026;-53
2021/05/17 05:22:48;;;;;;;1.10;0.50;;;20.40;55.70;;;;;;5034998;28;20033;-54
2021/05/17 05:25:16;;;;;;;1.92;0.75;;;20.50;55.70;;;;;;5033967;28;20412;-58
2021/05/17 05:27:50;;;;;;;3.53;0.60;;;20.50;55.70;;;;;;5034511;28;20028;-57
2021/05/17 05:30:58;;;;;;;1.73;0.55;;;20.50;55.80;;;;;;5034123;28;20156;-58
2021/05/17 05:33:15;;;;;;;3.03;0.90;;;20.50;56.00;;;;;;5031740;28;20044;-55
2021/05/17 05:35:40;;;;;;;2.83;0.55;;;20.60;56.10;;;;;;5034797;28;20080;-57
2021/05/17 05:38:06;;;;;;;4.10;1.13;;;20.50;56.10;;;;;;5034116;28;20038;-52
2021/05/17 05:40:32;;;;;;;1.67;0.63;;;20.60;56.30;;;;;;5034341;28;20519;-58
2021/05/17 05:42:57;;;;;;;5.05;0.75;;;20.60;56.30;;;;;;5034434;28;20025;-53
2021/05/17 05:45:23;;;;;;;2.80;0.82;;;20.60;56.20;;;;;;5033683;28;20030;-50
2021/05/17 05:47:49;;;;;;;3.70;0.80;;;20.60;56.10;;;;;;5034563;28;20040;-54
2021/05/17 05:50:14;;;;;;;4.00;0.50;;;20.60;56.00;;;;;;5033471;28;20048;-55
2021/05/17 05:52:40;;;;;;;3.40;0.75;;;20.60;55.90;;;;;;5034206;28;20041;-56
2021/05/17 05:55:06;;;;;;;9.63;1.27;;;20.60;56.10;;;;;;5033672;28;20044;-58
2021/05/17 05:57:42;;;;;;;1.15;0.60;;;20.70;56.20;;;;;;5033614;28;20048;-51
2021/05/17 06:00:12;;;;;;;1.60;0.70;;;20.60;56.20;;;;;;5033688;28;20030;-58
2021/05/17 06:02:38;;;;;;;9.23;1.02;;;20.60;56.60;;;;;;5034044;28;20025;-49
2021/05/17 06:05:05;;;;;;;4.72;0.90;;;20.70;56.70;;;;;;5033493;28;20083;-52
2021/05/17 06:07:31;;;;;;;12.55;1.25;;;20.70;56.60;;;;;;5034162;28;20056;-53
2021/05/17 06:09:57;;;;;;;5.45;1.60;;;20.70;56.90;;;;;;5032559;28;20435;-52
2021/05/17 06:12:23;;;;;;;12.18;1.33;;;20.70;56.90;;;;;;5033570;28;20400;-48
2021/05/17 06:14:53;;;;;;;5.57;1.35;;;20.70;57.20;;;;;;5033540;28;20018;-49
2021/05/17 06:17:19;;;;;;;15.00;1.83;;;20.70;57.40;;;;;;5033283;28;20126;-46
2021/05/17 06:19:45;;;;;;;8.05;1.50;;;20.60;57.50;;;;;;5034099;28;20021;-51
2021/05/17 06:22:11;;;;;;;9.80;1.50;;;20.60;57.70;;;;;;5033423;28;20216;-52
2021/05/17 06:24:36;;;;;;;9.50;1.63;;;20.70;57.60;;;;;;5033949;28;20022;-54
2021/05/17 06:27:02;;;;;;;14.18;1.88;;;20.60;57.60;;;;;;5033239;28;20471;-45
2021/05/17 06:29:28;;;;;;;10.27;2.33;;;20.70;57.80;;;;;;5033518;28;20029;-70
2021/05/17 06:31:55;;;;;;;17.95;1.58;;;20.70;57.70;;;;;;5033792;28;20049;-69
2021/05/17 06:34:20;;;;;;;21.85;1.95;;;20.80;57.30;;;;;;5033453;28;20037;-71
2021/05/17 06:36:46;;;;;;;19.15;1.70;;;20.90;57.00;;;;;;5033626;28;20033;-70
2021/05/17 06:39:12;;;;;;;17.48;2.40;;;20.90;56.70;;;;;;5033626;28;20441;-70
2021/05/17 06:41:38;;;;;;;20.17;2.35;;;21.00;56.70;;;;;;5033114;28;20026;-66
2021/05/17 06:44:05;;;;;;;23.85;2.83;;;21.00;56.90;;;;;;5033534;28;20458;-70
2021/05/17 06:46:31;;;;;;;15.77;2.15;;;21.10;57.10;;;;;;5033300;28;20356;-65
2021/05/17 06:48:58;;;;;;;9.30;1.63;;;21.10;57.10;;;;;;5033638;28;20045;-67
2021/05/17 06:51:23;;;;;;;25.25;2.17;;;21.10;57.10;;;;;;5033345;28;20029;-67
2021/05/17 06:53:53;;;;;;;17.63;2.10;;;21.10;57.10;;;;;;5033320;28;20018;-68
2021/05/17 07:01:19;;;;;;;16.10;1.88;;;21.20;56.70;;;;;;5033409;28;20443;-66
2021/05/17 07:03:45;;;;;;;19.55;2.00;;;21.20;56.80;;;;;;5033452;28;20033;-65
2021/05/17 07:06:16;;;;;;;11.35;2.05;;;21.20;56.90;;;;;;5032891;28;20363;-66
2021/05/17 07:13:57;;;;;;;16.23;3.25;;;21.30;56.70;;;;;;5035250;28;20026;-67
2021/05/17 07:16:23;;;;;;;24.42;4.28;;;21.40;56.50;;;;;;5037417;28;20485;-68
2021/05/17 07:18:49;;;;;;;20.95;4.82;;;21.40;56.60;;;;;;5037011;28;20029;-67
2021/05/17 07:23:44;;;;;;;18.88;4.32;;;21.50;57.00;;;;;;5037125;28;20036;-66
2021/05/17 07:26:15;;;;;;;29.17;5.47;;;21.60;57.10;;;;;;5036755;28;20025;-67
2021/05/17 07:28:41;;;;;;;18.73;4.47;;;21.80;58.10;;;;;;5037287;28;20026;-67
2021/05/17 07:31:09;;;;;;;15.48;3.45;;;21.80;57.50;;;;;;5036639;28;20045;-70
2021/05/17 07:33:35;;;;;;;12.45;2.60;;;22.00;57.10;;;;;;5036878;28;20021;-66
2021/05/17 07:36:01;;;;;;;13.80;3.13;;;22.00;56.60;;;;;;5036899;28;20034;-67
2021/05/17 07:38:29;;;;;;;18.73;3.03;;;22.10;56.40;;;;;;5036585;28;20060;-67
2021/05/17 07:40:56;;;;;;;17.00;3.17;;;22.20;56.20;;;;;;5037010;28;20475;-65
2021/05/17 07:43:22;;;;;;;11.75;3.25;;;22.20;56.50;;;;;;5036787;28;20060;-65
2021/05/17 07:45:48;;;;;;;13.40;3.38;;;22.30;56.40;;;;;;5036767;28;20057;-68
2021/05/17 07:48:14;;;;;;;11.10;2.40;;;22.40;56.20;;;;;;5036354;28;20404;-68
2021/05/17 07:50:40;;;;;;;8.35;2.53;;;22.40;55.60;;;;;;5036525;28;20041;-67
2021/05/17 07:53:06;;;;;;;10.55;2.00;;;22.40;55.10;;;;;;5037017;28;20425;-68
2021/05/17 07:55:31;;;;;;;13.57;2.30;;;22.50;54.70;;;;;;5036285;28;20028;-65
2021/05/17 07:57:57;;;;;;;14.25;2.50;;;22.50;54.20;;;;;;5036308;28;20061;-66
2021/05/17 08:00:24;;;;;;;14.32;2.17;;;22.50;54.10;;;;;;5036118;28;20022;-65
2021/05/17 08:02:49;;;;;;;16.67;2.35;;;22.60;53.80;;;;;;5036121;28;20022;-67
2021/05/17 08:05:16;;;;;;;9.27;2.22;;;22.60;53.50;;;;;;5036457;28;20786;-70
2021/05/17 08:07:42;;;;;;;23.13;2.33;;;22.70;53.50;;;;;;5036156;28;20045;-66
2021/05/17 08:10:09;;;;;;;19.80;2.47;;;22.70;53.50;;;;;;5036211;28;20067;-71
2021/05/17 08:12:35;;;;;;;19.13;2.13;;;22.70;53.50;;;;;;5036413;28;20079;-67
2021/05/17 08:15:01;;;;;;;8.20;1.77;;;22.80;53.60;;;;;;5035765;28;20029;-69
2021/05/17 08:17:26;;;;;;;15.90;2.97;;;22.80;53.50;;;;;;5035993;28;20032;-67
2021/05/17 08:19:52;;;;;;;16.65;2.47;;;22.90;53.50;;;;;;5035861;28;20347;-69
2021/05/17 08:22:17;;;;;;;16.20;2.90;;;22.90;53.80;;;;;;5035758;28;20532;-71
2021/05/17 08:24:43;;;;;;;16.38;2.28;;;23.00;55.70;;;;;;5035464;28;20411;-70
2021/05/17 08:27:09;;;;;;;13.00;1.90;;;23.10;56.80;;;;;;5035640;28;20036;-69
2021/05/17 08:29:36;;;;;;;8.27;1.73;;;23.10;57.40;;;;;;5035798;28;20021;-70
2021/05/17 08:32:03;;;;;;;7.80;2.00;;;23.10;57.40;;;;;;5035162;28;20049;-70
2021/05/17 08:34:30;;;;;;;10.52;1.95;;;23.20;57.10;;;;;;5035792;28;20021;-71
2021/05/17 08:36:57;;;;;;;12.93;2.60;;;23.20;56.40;;;;;;5035957;28;20030;-70
2021/05/17 08:39:22;;;;;;;16.33;2.30;;;23.20;55.90;;;;;;5035312;28;20040;-48
2021/05/17 08:41:48;;;;;;;13.40;2.53;;;23.20;55.40;;;;;;5035535;28;20021;-50
2021/05/17 08:44:13;;;;;;;16.02;3.20;;;23.00;55.80;;;;;;5035600;28;20045;-55
2021/05/17 08:46:46;;;;;;;8.35;1.70;;;22.90;56.00;;;;;;5035131;28;20352;-53
2021/05/17 08:49:12;;;;;;;10.57;3.17;;;22.80;56.10;;;;;;5035751;28;20146;-50
2021/05/17 08:51:37;;;;;;;15.23;2.55;;;22.60;56.20;;;;;;5034953;28;20069;-48
2021/05/17 08:54:06;;;;;;;14.02;2.15;;;22.60;56.40;;;;;;5035506;28;20108;-52
2021/05/17 08:56:33;;;;;;;16.95;2.10;;;22.50;56.60;;;;;;5035303;28;20076;-53
2021/05/17 08:59:01;;;;;;;11.18;2.58;;;22.50;56.80;;;;;;5035085;28;20030;-48
2021/05/17 09:01:27;;;;;;;11.50;2.15;;;22.40;56.90;;;;;;5035384;28;20030;-49
2021/05/17 09:03:56;;;;;;;14.70;2.03;;;22.40;56.70;;;;;;5034939;28;20542;-48
2021/05/17 09:06:34;;;;;;;7.00;1.58;;;22.40;56.60;;;;;;5034797;28;20486;-48
2021/05/17 09:09:02;;;;;;;10.02;1.83;;;22.30;56.60;;;;;;5035409;28;20037;-49
2021/05/17 09:11:30;;;;;;;5.78;1.50;;;22.30;56.80;;;;;;5034961;28;20332;-51
2021/05/17 09:14:13;;;;;;;12.15;1.83;;;22.40;56.70;;;;;;5035398;28;20049;-49
2021/05/17 09:17:03;;;;;;;16.90;1.83;;;22.40;56.60;;;;;;5034879;28;20356;-50
2021/05/17 09:19:31;;;;;;;9.65;1.80;;;22.40;56.60;;;;;;5034514;28;20268;-50
2021/05/17 09:22:04;;;;;;;16.42;1.98;;;22.40;56.60;;;;;;5035117;28;20032;-53
2021/05/17 09:24:38;;;;;;;12.85;1.55;;;22.40;56.60;;;;;;5034642;28;20021;-49
2021/05/17 09:27:07;;;;;;;10.38;1.67;;;22.40;56.70;;;;;;5034580;28;20026;-49
2021/05/17 09:29:41;;;;;;;14.10;1.40;;;22.50;56.10;;;;;;5034807;28;20025;-48
2021/05/17 09:32:17;;;;;;;14.40;1.90;;;22.40;56.30;;;;;;5034441;28;20053;-48
2021/05/17 09:34:45;;;;;;;21.27;1.80;;;22.40;55.50;;;;;;5034257;28;20025;-48
2021/05/17 09:37:13;;;;;;;17.83;1.70;;;22.40;55.70;;;;;;5033630;28;20079;-50
2021/05/17 09:39:48;;;;;;;15.57;1.90;;;22.40;56.60;;;;;;5034531;28;20035;-53
